Time;durP1;ratioP1;P1;durP2;ratioP2;P2;SDS_P1;SDS_P2;PMS_P1;PMS_P2;Temp;Humidity;BMP_temperature;BMP_pressure;BME280_temperature;BME280_humidity;BME280_pressure;Samples;Min_cycle;Max_cycle;Signal;HPM_P1;HPM_P2
2022/10/10 00:01:20;;;;;;;;;;;9.70;99.90;;;;;;4228890;28;19919;-60
2022/10/10 00:03:21;;;;;;;;;;;9.70;99.90;;;;;;4229865;28;19938;-61
2022/10/10 00:05:22;;;;;;;;;;;9.80;99.90;;;;;;4229459;27;19911;-60
2022/10/10 00:07:23;;;;;;;;;;;9.80;99.90;;;;;;4229850;28;19916;-60
2022/10/10 00:09:24;;;;;;;;;;;9.80;99.90;;;;;;4229091;27;20363;-60
2022/10/10 00:11:24;;;;;;;;;;;9.80;99.90;;;;;;4229868;28;19918;-60
2022/10/10 00:13:25;;;;;;;;;;;9.70;99.90;;;;;;4228396;28;20452;-60
2022/10/10 00:15:27;;;;;;;;;;;9.60;99.90;;;;;;4229407;28;19915;-59
2022/10/10 00:17:28;;;;;;;;;;;9.50;99.90;;;;;;4228123;28;19961;-60
2022/10/10 00:19:29;;;;;;;;;;;9.30;99.90;;;;;;4229251;28;19908;-60
2022/10/10 00:21:30;;;;;;;;;;;9.20;99.90;;;;;;4228328;28;19908;-61
2022/10/10 00:23:31;;;;;;;;;;;9.20;99.90;;;;;;4229035;28;19908;-59
2022/10/10 00:25:32;;;;;;;;;;;9.20;99.90;;;;;;4228622;28;20314;-60
2022/10/10 00:27:33;;;;;;;;;;;9.10;99.90;;;;;;4228598;28;19912;-60
2022/10/10 00:29:34;;;;;;;;;;;9.10;99.90;;;;;;4228873;28;19911;-61
2022/10/10 00:31:35;;;;;;;;;;;9.10;99.90;;;;;;4228251;28;19941;-60
2022/10/10 00:33:36;;;;;;;;;;;9.00;99.90;;;;;;4229378;28;19960;-59
2022/10/10 00:35:37;;;;;;;;;;;9.00;99.90;;;;;;4228751;28;19923;-60
2022/10/10 00:37:38;;;;;;;;;;;9.00;99.90;;;;;;4229490;28;19957;-59
2022/10/10 00:39:39;;;;;;;;;;;9.00;99.90;;;;;;4228300;28;19914;-61
2022/10/10 00:41:40;;;;;;;;;;;8.90;99.90;;;;;;4229057;28;19912;-61
2022/10/10 00:43:41;;;;;;;;;;;8.90;99.90;;;;;;4228172;28;19969;-60
2022/10/10 00:45:43;;;;;;;;;;;8.80;99.90;;;;;;4228265;28;19912;-61
2022/10/10 00:47:44;;;;;;;;;;;8.80;99.90;;;;;;4227447;28;19912;-60
2022/10/10 00:49:45;;;;;;;;;;;8.80;99.90;;;;;;4229079;28;20330;-60
2022/10/10 00:51:47;;;;;;;;;;;8.80;99.90;;;;;;4227630;28;19912;-61
2022/10/10 00:53:50;;;;;;;;;;;8.70;99.90;;;;;;4228681;28;20326;-60
2022/10/10 00:55:52;;;;;;;;;;;8.60;99.90;;;;;;4228554;28;19920;-60
2022/10/10 00:57:53;;;;;;;;;;;8.60;99.90;;;;;;4242928;27;19919;-61
2022/10/10 00:59:54;;;;;;;;;;;8.60;99.90;;;;;;4228488;28;20322;-60
2022/10/10 01:01:55;;;;;;;;;;;8.60;99.90;;;;;;4227762;28;19920;-60
2022/10/10 01:03:57;;;;;;;;;;;8.50;99.90;;;;;;4228047;28;19965;-61
2022/10/10 01:05:58;;;;;;;;;;;8.60;99.90;;;;;;4228073;28;19916;-60
2022/10/10 01:07:59;;;;;;;;;;;8.60;99.90;;;;;;4228031;28;19915;-61
2022/10/10 01:10:09;;;;;;;;;;;8.60;99.90;;;;;;4227147;28;19957;-60
2022/10/10 01:12:20;;;;;;;;;;;8.60;99.90;;;;;;4228495;28;19908;-60
2022/10/10 01:14:33;;;;;;;;;;;8.60;99.90;;;;;;4227382;28;19965;-60
2022/10/10 01:16:53;;;;;;;;;;;8.60;99.90;;;;;;4227219;28;19912;-58
2022/10/10 01:18:56;;;;;;;;;;;8.60;99.90;;;;;;4227692;28;19916;-60
2022/10/10 01:21:00;;;;;;;;;;;8.60;99.90;;;;;;4228916;28;20654;-60
2022/10/10 01:23:20;;;;;;;;;;;8.60;99.90;;;;;;4227466;28;19911;-60
2022/10/10 01:25:29;;;;;;;;;;;8.60;99.90;;;;;;4228882;28;19912;-59
2022/10/10 01:27:29;;;;;;;;;;;8.60;99.90;;;;;;4227929;28;20024;-58
2022/10/10 01:29:37;;;;;;;;;;;8.60;99.90;;;;;;4228970;28;19997;-60
2022/10/10 01:31:41;;;;;;;;;;;8.50;99.90;;;;;;4227708;28;20391;-60
2022/10/10 01:33:53;;;;;;;;;;;8.50;99.90;;;;;;4229027;28;19965;-59
2022/10/10 01:36:07;;;;;;;;;;;8.50;99.90;;;;;;4228082;28;20310;-60
2022/10/10 01:38:17;;;;;;;;;;;8.40;99.90;;;;;;4228562;28;19920;-60
2022/10/10 01:40:28;;;;;;;;;;;8.20;99.90;;;;;;4227373;28;19920;-60
2022/10/10 01:42:33;;;;;;;;;;;8.10;99.90;;;;;;4228670;28;19908;-61
2022/10/10 01:44:34;;;;;;;;;;;8.10;99.90;;;;;;4227450;28;19960;-61
2022/10/10 01:46:35;;;;;;;;;;;8.10;99.90;;;;;;4228123;28;19919;-61
2022/10/10 01:48:37;;;;;;;;;;;8.10;99.90;;;;;;4226387;28;19915;-58
2022/10/10 01:50:50;;;;;;;;;;;8.10;99.90;;;;;;4226802;28;19976;-59
2022/10/10 01:52:58;;;;;;;;;;;8.10;99.90;;;;;;4227506;28;19968;-60
2022/10/10 01:55:13;;;;;;;;;;;8.00;99.90;;;;;;4228982;28;20340;-60
2022/10/10 01:57:20;;;;;;;;;;;8.00;99.90;;;;;;4227221;28;20321;-61
2022/10/10 01:59:41;;;;;;;;;;;8.00;99.90;;;;;;4228567;28;19912;-61
2022/10/10 02:01:49;;;;;;;;;;;8.00;99.90;;;;;;4227297;28;19924;-60
2022/10/10 02:03:56;;;;;;;;;;;8.00;99.90;;;;;;4228390;28;19964;-60
2022/10/10 02:06:11;;;;;;;;;;;7.90;99.90;;;;;;4227815;28;20356;-60
2022/10/10 02:08:14;;;;;;;;;;;7.90;99.90;;;;;;4228546;28;19907;-62
2022/10/10 02:10:18;;;;;;;;;;;7.90;99.90;;;;;;4227470;28;19961;-60
2022/10/10 02:12:20;;;;;;;;;;;7.90;99.90;;;;;;4228185;28;19961;-59
2022/10/10 02:14:23;;;;;;;;;;;7.90;99.90;;;;;;4227636;28;20421;-59
2022/10/10 02:16:26;;;;;;;;;;;7.90;99.90;;;;;;4228522;28;20298;-60
2022/10/10 02:18:30;;;;;;;;;;;7.90;99.90;;;;;;4227329;28;19912;-63
2022/10/10 02:20:31;;;;;;;;;;;7.80;99.90;;;;;;4228501;28;19912;-60
2022/10/10 02:22:32;;;;;;;;;;;7.80;99.90;;;;;;4228726;28;19934;-60
2022/10/10 02:24:33;;;;;;;;;;;7.80;99.90;;;;;;4230930;28;19934;-59
2022/10/10 02:26:35;;;;;;;;;;;7.70;99.90;;;;;;4231203;28;20348;-60
2022/10/10 02:28:43;;;;;;;;;;;7.70;99.90;;;;;;4230540;28;19907;-60
2022/10/10 02:30:45;;;;;;;;;;;7.70;99.90;;;;;;4230943;28;20256;-59
2022/10/10 02:32:48;;;;;;;;;;;7.70;99.90;;;;;;4230476;27;19953;-59
2022/10/10 02:34:50;;;;;;;;;;;7.60;99.90;;;;;;4231285;28;19972;-59
2022/10/10 02:36:55;;;;;;;;;;;7.60;99.90;;;;;;4230366;28;19984;-60
2022/10/10 02:38:57;;;;;;;;;;;7.60;99.90;;;;;;4231137;28;19965;-61
2022/10/10 02:41:02;;;;;;;;;;;7.60;99.90;;;;;;4229591;28;19957;-59
2022/10/10 02:43:05;;;;;;;;;;;7.60;99.90;;;;;;4230623;27;20416;-60
2022/10/10 02:45:06;;;;;;;;;;;7.50;99.90;;;;;;4229971;28;19953;-57
2022/10/10 02:47:07;;;;;;;;;;;7.50;99.90;;;;;;4231178;28;19908;-60
2022/10/10 02:49:08;;;;;;;;;;;7.50;99.90;;;;;;4229557;28;19908;-60
2022/10/10 02:51:11;;;;;;;;;;;7.50;99.90;;;;;;4230582;27;19965;-59
2022/10/10 02:53:12;;;;;;;;;;;7.50;99.90;;;;;;4229439;28;19916;-60
2022/10/10 02:55:13;;;;;;;;;;;7.50;99.90;;;;;;4230915;27;19924;-60
2022/10/10 02:57:14;;;;;;;;;;;7.40;99.90;;;;;;4229771;28;20269;-60
2022/10/10 02:59:15;;;;;;;;;;;7.50;99.90;;;;;;4230375;28;19911;-59
2022/10/10 03:01:16;;;;;;;;;;;7.40;99.90;;;;;;4229996;28;19924;-59
2022/10/10 03:03:17;;;;;;;;;;;7.50;99.90;;;;;;4230331;27;19908;-60
2022/10/10 03:05:18;;;;;;;;;;;7.50;99.90;;;;;;4231248;27;19969;-60
2022/10/10 03:07:19;;;;;;;;;;;7.50;99.90;;;;;;4230014;27;19918;-61
2022/10/10 03:09:20;;;;;;;;;;;7.40;99.90;;;;;;4230383;28;19908;-61
2022/10/10 03:11:20;;;;;;;;;;;7.30;99.90;;;;;;4229833;28;19916;-61
2022/10/10 03:13:22;;;;;;;;;;;7.30;99.90;;;;;;4230833;28;19912;-60
2022/10/10 03:15:22;;;;;;;;;;;7.30;99.90;;;;;;4229250;28;20425;-61
2022/10/10 03:17:23;;;;;;;;;;;7.30;99.90;;;;;;4230947;28;19916;-61
2022/10/10 03:19:24;;;;;;;;;;;7.30;99.90;;;;;;4229623;28;20291;-65
2022/10/10 03:21:25;;;;;;;;;;;7.30;99.90;;;;;;4231084;27;19911;-63
2022/10/10 03:23:26;;;;;;;;;;;7.30;99.90;;;;;;4229732;28;19994;-61
2022/10/10 03:25:27;;;;;;;;;;;7.30;99.90;;;;;;4230010;28;19954;-61
2022/10/10 03:27:28;;;;;;;;;;;7.20;99.90;;;;;;4229523;28;19912;-59
2022/10/10 03:29:29;;;;;;;;;;;7.20;99.90;;;;;;4229902;28;19956;-60
2022/10/10 03:31:30;;;;;;;;;;;7.30;99.90;;;;;;4229611;28;19941;-60
2022/10/10 03:33:31;;;;;;;;;;;7.20;99.90;;;;;;4229049;28;19912;-61
2022/10/10 03:35:32;;;;;;;;;;;7.20;99.90;;;;;;4230184;28;19926;-61
2022/10/10 03:37:33;;;;;;;;;;;7.10;99.90;;;;;;4229218;28;20194;-60
2022/10/10 03:39:34;;;;;;;;;;;7.00;99.90;;;;;;4230289;28;19934;-61
2022/10/10 03:41:35;;;;;;;;;;;7.00;99.90;;;;;;4228824;28;19912;-61
2022/10/10 03:43:36;;;;;;;;;;;6.90;99.90;;;;;;4231212;27;19920;-61
2022/10/10 03:45:37;;;;;;;;;;;6.80;99.90;;;;;;4230606;27;20332;-60
2022/10/10 03:47:38;;;;;;;;;;;6.80;99.90;;;;;;4229083;28;19912;-61
2022/10/10 03:49:39;;;;;;;;;;;6.80;99.90;;;;;;4228725;28;20291;-58
2022/10/10 03:51:40;;;;;;;;;;;6.70;99.90;;;;;;4229829;28;19937;-61
2022/10/10 03:53:41;;;;;;;;;;;6.70;99.90;;;;;;4228006;28;19912;-60
2022/10/10 03:55:42;;;;;;;;;;;6.70;99.90;;;;;;4228967;28;19949;-61
2022/10/10 03:57:43;;;;;;;;;;;6.60;99.90;;;;;;4229411;27;19943;-60
2022/10/10 03:59:44;;;;;;;;;;;6.60;99.90;;;;;;4229137;28;19973;-60
2022/10/10 04:01:44;;;;;;;;;;;6.70;99.90;;;;;;4228917;28;19969;-61
2022/10/10 04:03:45;;;;;;;;;;;6.70;99.90;;;;;;4228562;28;19907;-61
2022/10/10 04:05:46;;;;;;;;;;;6.70;99.90;;;;;;4229127;27;19922;-61
2022/10/10 04:07:47;;;;;;;;;;;6.80;99.90;;;;;;4225237;28;19912;-60
2022/10/10 04:09:48;;;;;;;;;;;6.80;99.90;;;;;;4226852;28;19912;-61
2022/10/10 04:11:49;;;;;;;;;;;6.90;99.90;;;;;;4224062;27;19973;-61
2022/10/10 04:13:50;;;;;;;;;;;6.90;99.90;;;;;;4224931;28;19924;-63
2022/10/10 04:15:53;;;;;;;;;;;6.90;99.90;;;;;;4223904;28;19927;-60
2022/10/10 04:17:54;;;;;;;;;;;6.80;99.90;;;;;;4224794;28;20372;-62
2022/10/10 04:19:55;;;;;;;;;;;6.80;99.90;;;;;;4223453;28;19920;-61
2022/10/10 04:21:56;;;;;;;;;;;6.70;99.90;;;;;;4224694;28;19938;-62
2022/10/10 04:23:56;;;;;;;;;;;6.60;99.90;;;;;;4223751;28;19957;-61
2022/10/10 04:25:57;;;;;;;;;;;6.50;99.90;;;;;;4224921;28;20004;-62
2022/10/10 04:27:58;;;;;;;;;;;6.40;99.90;;;;;;4223548;28;19958;-62
2022/10/10 04:29:59;;;;;;;;;;;6.30;99.90;;;;;;4221274;28;20081;-60
2022/10/10 04:32:00;;;;;;;;;;;6.10;99.90;;;;;;4223519;27;20295;-58
2022/10/10 04:34:01;;;;;;;;;;;6.00;99.90;;;;;;4223613;28;19920;-60
2022/10/10 04:36:02;;;;;;;;;;;5.90;99.90;;;;;;4227877;27;19923;-62
2022/10/10 04:38:04;;;;;;;;;;;5.90;99.90;;;;;;4227155;28;19912;-59
2022/10/10 04:40:05;;;;;;;;;;;5.80;99.90;;;;;;4228705;28;19976;-60
2022/10/10 04:42:06;;;;;;;;;;;5.80;99.90;;;;;;4227676;28;20452;-64
2022/10/10 04:44:07;;;;;;;;;;;5.80;99.90;;;;;;4228412;28;19916;-60
2022/10/10 04:46:08;;;;;;;;;;;5.80;99.90;;;;;;4226173;28;19916;-60
2022/10/10 04:48:09;;;;;;;;;;;5.80;99.90;;;;;;4228447;27;20345;-60
2022/10/10 04:50:10;;;;;;;;;;;5.70;99.90;;;;;;4227622;28;19957;-60
2022/10/10 04:52:11;;;;;;;;;;;5.60;99.90;;;;;;4225581;27;19916;-60
2022/10/10 04:54:12;;;;;;;;;;;5.50;99.90;;;;;;4227300;28;19926;-61
2022/10/10 04:56:13;;;;;;;;;;;5.50;99.90;;;;;;4228838;28;19970;-59
2022/10/10 04:58:14;;;;;;;;;;;5.40;99.90;;;;;;4227556;28;19911;-60
2022/10/10 05:00:15;;;;;;;;;;;5.40;99.90;;;;;;4226943;28;19912;-58
2022/10/10 05:02:15;;;;;;;;;;;5.50;99.90;;;;;;4227436;27;19963;-61
2022/10/10 05:04:16;;;;;;;;;;;5.50;99.90;;;;;;4228032;28;20020;-61
2022/10/10 05:06:17;;;;;;;;;;;5.50;99.90;;;;;;4227930;27;19995;-59
2022/10/10 05:08:19;;;;;;;;;;;5.40;99.90;;;;;;4226208;27;19911;-60
2022/10/10 05:10:20;;;;;;;;;;;5.50;99.90;;;;;;4228511;28;20349;-60
2022/10/10 05:12:20;;;;;;;;;;;5.50;99.90;;;;;;4227239;28;19915;-62
2022/10/10 05:14:21;;;;;;;;;;;5.50;99.90;;;;;;4227502;27;19920;-60
2022/10/10 05:16:22;;;;;;;;;;;5.40;99.90;;;;;;4226593;28;20429;-61
2022/10/10 05:18:23;;;;;;;;;;;5.40;99.90;;;;;;4228463;28;19912;-60
2022/10/10 05:20:24;;;;;;;;;;;5.40;99.90;;;;;;4226784;28;19926;-63
2022/10/10 05:22:26;;;;;;;;;;;5.50;99.90;;;;;;4228350;28;19916;-61
2022/10/10 05:24:27;;;;;;;;;;;5.50;99.90;;;;;;4227070;28;19912;-62
2022/10/10 05:26:28;;;;;;;;;;;5.50;99.90;;;;;;4227942;28;19918;-62
2022/10/10 05:28:29;;;;;;;;;;;5.60;99.90;;;;;;4227438;28;19908;-63
2022/10/10 05:30:30;;;;;;;;;;;5.80;99.90;;;;;;4226578;28;20423;-63
2022/10/10 05:32:31;;;;;;;;;;;5.90;99.90;;;;;;4227905;28;19918;-63
2022/10/10 05:34:32;;;;;;;;;;;6.10;99.90;;;;;;4227431;28;20275;-64
2022/10/10 05:36:33;;;;;;;;;;;6.20;99.90;;;;;;4227057;28;19916;-61
2022/10/10 05:38:34;;;;;;;;;;;6.30;99.90;;;;;;4227274;28;19907;-62
2022/10/10 05:40:37;;;;;;;;;;;6.40;99.90;;;;;;4228459;28;20317;-62
2022/10/10 05:42:38;;;;;;;;;;;6.50;99.90;;;;;;4227162;28;19908;-61
2022/10/10 05:44:39;;;;;;;;;;;6.70;99.90;;;;;;4228097;28;19908;-62
2022/10/10 05:46:40;;;;;;;;;;;6.80;99.90;;;;;;4227205;28;19908;-64
2022/10/10 05:48:41;;;;;;;;;;;7.00;99.90;;;;;;4228123;28;19908;-62
2022/10/10 05:50:45;;;;;;;;;;;7.10;99.90;;;;;;4226423;28;19977;-63
2022/10/10 05:52:46;;;;;;;;;;;7.00;99.90;;;;;;4228003;28;19956;-63
2022/10/10 05:54:47;;;;;;;;;;;6.90;99.90;;;;;;4226989;28;19911;-62
2022/10/10 05:56:48;;;;;;;;;;;6.90;99.90;;;;;;4227737;28;19912;-62
2022/10/10 05:58:50;;;;;;;;;;;6.90;99.90;;;;;;4230487;28;19911;-63
2022/10/10 06:00:51;;;;;;;;;;;6.90;99.90;;;;;;4230804;28;19988;-61
2022/10/10 06:02:52;;;;;;;;;;;7.00;99.90;;;;;;4230118;28;19919;-61
2022/10/10 06:04:53;;;;;;;;;;;7.10;99.90;;;;;;4230257;28;20272;-65
2022/10/10 06:06:54;;;;;;;;;;;7.10;99.90;;;;;;4231250;28;19908;-62
2022/10/10 06:08:55;;;;;;;;;;;7.10;99.90;;;;;;4229938;28;20002;-61
2022/10/10 06:10:59;;;;;;;;;;;7.10;99.90;;;;;;4230699;28;19931;-61
2022/10/10 06:13:00;;;;;;;;;;;7.10;99.90;;;;;;4229636;28;19916;-64
2022/10/10 06:15:01;;;;;;;;;;;7.00;99.90;;;;;;4246252;27;20314;-62
2022/10/10 06:17:03;;;;;;;;;;;7.00;99.90;;;;;;4229860;28;20288;-63
2022/10/10 06:19:04;;;;;;;;;;;7.10;99.90;;;;;;4230529;28;19908;-61
2022/10/10 06:21:06;;;;;;;;;;;7.10;99.90;;;;;;4229653;28;19961;-62
2022/10/10 06:23:07;;;;;;;;;;;7.10;99.90;;;;;;4230837;28;20269;-61
2022/10/10 06:25:08;;;;;;;;;;;7.20;99.90;;;;;;4229501;28;20266;-60
2022/10/10 06:27:09;;;;;;;;;;;7.40;99.90;;;;;;4230711;28;19969;-61
2022/10/10 06:29:10;;;;;;;;;;;7.40;99.90;;;;;;4230111;28;19919;-62
2022/10/10 06:31:11;;;;;;;;;;;7.40;99.90;;;;;;4230431;28;19916;-61
2022/10/10 06:33:13;;;;;;;;;;;7.40;99.90;;;;;;4230069;28;19908;-65
2022/10/10 06:35:14;;;;;;;;;;;7.40;99.90;;;;;;4229821;28;19915;-62
2022/10/10 06:37:15;;;;;;;;;;;7.60;99.90;;;;;;4230846;28;19976;-62
2022/10/10 06:39:16;;;;;;;;;;;7.60;99.90;;;;;;4229778;28;19908;-62
2022/10/10 06:41:17;;;;;;;;;;;7.70;99.90;;;;;;4230298;28;19989;-62
2022/10/10 06:43:18;;;;;;;;;;;7.80;99.90;;;;;;4229778;28;20010;-62
2022/10/10 06:45:20;;;;;;;;;;;8.00;99.90;;;;;;4230967;28;19912;-62
2022/10/10 06:47:21;;;;;;;;;;;8.10;99.90;;;;;;4229430;28;20458;-63
2022/10/10 06:49:22;;;;;;;;;;;8.30;99.90;;;;;;4230677;28;19912;-64
2022/10/10 06:51:24;;;;;;;;;;;8.50;99.90;;;;;;4229738;28;19951;-63
2022/10/10 06:53:26;;;;;;;;;;;8.60;99.90;;;;;;4230723;28;20696;-64
2022/10/10 06:55:27;;;;;;;;;;;8.70;99.90;;;;;;4229405;28;19965;-66
2022/10/10 06:57:28;;;;;;;;;;;8.80;99.90;;;;;;4230196;27;19912;-63
2022/10/10 06:59:29;;;;;;;;;;;8.70;99.90;;;;;;4229416;28;20233;-61
2022/10/10 07:01:30;;;;;;;;;;;8.80;99.90;;;;;;4229824;28;19920;-62
2022/10/10 07:03:31;;;;;;;;;;;8.80;99.90;;;;;;4229839;28;19915;-61
2022/10/10 07:05:32;;;;;;;;;;;8.70;99.90;;;;;;4229896;28;20356;-61
2022/10/10 07:07:33;;;;;;;;;;;8.70;99.90;;;;;;4230319;28;19941;-62
2022/10/10 07:09:34;;;;;;;;;;;8.70;99.90;;;;;;4228272;28;19953;-62
2022/10/10 07:11:35;;;;;;;;;;;8.70;99.90;;;;;;4230082;28;19912;-62
2022/10/10 07:13:36;;;;;;;;;;;8.70;99.90;;;;;;4228998;28;20612;-61
2022/10/10 07:15:37;;;;;;;;;;;8.70;99.90;;;;;;4230208;28;19924;-61
2022/10/10 07:17:38;;;;;;;;;;;8.70;99.90;;;;;;4228827;28;20363;-62
2022/10/10 07:19:39;;;;;;;;;;;8.70;99.90;;;;;;4230000;28;20367;-62
2022/10/10 07:21:40;;;;;;;;;;;8.70;99.90;;;;;;4228478;28;19912;-62
2022/10/10 07:23:41;;;;;;;;;;;8.80;99.90;;;;;;4230168;28;19912;-62
2022/10/10 07:25:42;;;;;;;;;;;8.80;99.90;;;;;;4228979;28;19953;-62
2022/10/10 07:27:43;;;;;;;;;;;8.80;99.90;;;;;;4230095;28;19912;-62
2022/10/10 07:29:44;;;;;;;;;;;8.80;99.90;;;;;;4229102;28;19958;-62
2022/10/10 07:31:45;;;;;;;;;;;8.80;99.90;;;;;;4229619;28;19908;-60
2022/10/10 07:33:47;;;;;;;;;;;8.90;99.90;;;;;;4229089;28;19930;-61
2022/10/10 07:35:53;;;;;;;;;;;8.90;99.90;;;;;;4229477;28;19924;-62
2022/10/10 07:37:55;;;;;;;;;;;8.90;99.90;;;;;;4229677;28;20886;-61
2022/10/10 07:39:55;;;;;;;;;;;8.90;99.90;;;;;;4227164;28;19911;-61
2022/10/10 07:41:56;;;;;;;;;;;8.90;99.90;;;;;;4229363;28;20332;-61
2022/10/10 07:43:57;;;;;;;;;;;8.90;99.90;;;;;;4228463;28;19920;-61
2022/10/10 07:45:58;;;;;;;;;;;8.90;99.90;;;;;;4229643;28;19919;-61
2022/10/10 07:47:59;;;;;;;;;;;8.90;99.90;;;;;;4227937;28;20351;-60
2022/10/10 07:50:00;;;;;;;;;;;8.90;99.90;;;;;;4229737;28;20328;-62
2022/10/10 07:52:01;;;;;;;;;;;8.90;99.90;;;;;;4228626;28;19919;-61
2022/10/10 07:54:02;;;;;;;;;;;9.00;99.90;;;;;;4229725;28;19912;-61
2022/10/10 07:56:04;;;;;;;;;;;9.10;99.90;;;;;;4228488;28;19919;-60
2022/10/10 07:58:05;;;;;;;;;;;9.10;99.90;;;;;;4229705;28;19957;-61
2022/10/10 08:00:07;;;;;;;;;;;9.20;99.90;;;;;;4228499;28;20302;-61
2022/10/10 08:02:08;;;;;;;;;;;9.20;99.90;;;;;;4228845;28;19927;-61
2022/10/10 08:04:09;;;;;;;;;;;9.30;99.90;;;;;;4228747;28;19928;-60
2022/10/10 08:06:12;;;;;;;;;;;9.40;99.90;;;;;;4229218;28;20359;-61
2022/10/10 08:08:13;;;;;;;;;;;9.50;99.90;;;;;;4228949;28;20413;-63
2022/10/10 08:10:14;;;;;;;;;;;9.60;99.90;;;;;;4228214;28;19911;-61
2022/10/10 08:12:15;;;;;;;;;;;9.60;99.90;;;;;;4229080;28;19920;-61
2022/10/10 08:14:16;;;;;;;;;;;9.70;99.90;;;;;;4227902;28;19911;-61
2022/10/10 08:16:19;;;;;;;;;;;9.70;99.90;;;;;;4229058;28;20005;-60
2022/10/10 08:18:20;;;;;;;;;;;9.80;99.90;;;;;;4227767;28;19911;-62
2022/10/10 08:20:21;;;;;;;;;;;9.90;99.90;;;;;;4228319;28;20746;-62
2022/10/10 08:22:22;;;;;;;;;;;10.00;99.90;;;;;;4226327;28;19950;-61
2022/10/10 08:24:23;;;;;;;;;;;10.10;99.90;;;;;;4228285;27;19939;-60
2022/10/10 08:26:23;;;;;;;;;;;10.10;99.90;;;;;;4227379;28;19912;-60
2022/10/10 08:28:25;;;;;;;;;;;10.10;99.90;;;;;;4228586;28;19960;-61
2022/10/10 08:30:26;;;;;;;;;;;10.10;99.90;;;;;;4227699;28;19957;-60
2022/10/10 08:32:27;;;;;;;;;;;10.20;99.90;;;;;;4228389;28;20002;-61
2022/10/10 08:34:27;;;;;;;;;;;10.20;99.90;;;;;;4227084;28;19911;-62
2022/10/10 08:36:28;;;;;;;;;;;10.20;99.90;;;;;;4228302;28;20367;-62
2022/10/10 08:38:29;;;;;;;;;;;10.20;99.90;;;;;;4227863;28;20260;-59
2022/10/10 08:40:31;;;;;;;;;;;10.10;99.90;;;;;;4227846;28;19952;-61
2022/10/10 08:42:44;;;;;;;;;;;10.20;99.90;;;;;;4228505;28;19908;-63
2022/10/10 08:44:48;;;;;;;;;;;10.30;99.90;;;;;;4227585;28;20284;-61
2022/10/10 08:46:55;;;;;;;;;;;10.40;99.90;;;;;;4228596;28;19908;-63
2022/10/10 08:48:57;;;;;;;;;;;10.40;99.90;;;;;;4227478;28;19953;-61
2022/10/10 08:51:00;;;;;;;;;;;10.50;99.90;;;;;;4228599;28;19915;-60
2022/10/10 08:53:04;;;;;;;;;;;10.50;99.90;;;;;;4225672;28;19908;-61
2022/10/10 08:55:12;;;;;;;;;;;10.50;99.90;;;;;;4228750;28;20417;-63
2022/10/10 08:57:21;;;;;;;;;;;10.50;99.90;;;;;;4242463;27;20444;-60
2022/10/10 08:59:25;;;;;;;;;;;10.60;99.90;;;;;;4228668;28;20372;-60
2022/10/10 09:01:30;;;;;;;;;;;10.70;99.90;;;;;;4227176;28;19923;-62
2022/10/10 09:03:42;;;;;;;;;;;10.70;99.90;;;;;;4228467;28;20325;-61
2022/10/10 09:06:10;;;;;;;;;;;10.80;99.90;;;;;;4227150;28;19907;-61
2022/10/10 09:08:11;;;;;;;;;;;10.80;99.90;;;;;;4224684;28;19957;-61
2022/10/10 09:10:32;;;;;;;;;;;10.80;99.90;;;;;;4226836;28;19908;-62
2022/10/10 09:13:05;;;;;;;;;;;10.80;99.90;;;;;;4186180;28;20413;-64
2022/10/10 09:15:14;;;;;;;;;;;10.80;99.90;;;;;;4181588;28;19908;-61
2022/10/10 09:17:15;;;;;;;;;;;10.90;99.90;;;;;;4227997;28;19961;-60
2022/10/10 09:19:34;;;;;;;;;;;11.00;99.90;;;;;;4227306;28;19908;-61
2022/10/10 09:21:36;;;;;;;;;;;11.00;99.90;;;;;;4227776;28;19907;-61
2022/10/10 09:23:43;;;;;;;;;;;11.00;99.90;;;;;;4226838;28;20728;-62
2022/10/10 09:25:55;;;;;;;;;;;11.10;99.90;;;;;;4227985;28;20368;-60
2022/10/10 09:28:02;;;;;;;;;;;11.10;99.90;;;;;;4226935;28;20325;-60
2022/10/10 09:30:12;;;;;;;;;;;11.20;99.90;;;;;;4227817;28;19961;-60
2022/10/10 09:32:16;;;;;;;;;;;11.30;99.90;;;;;;4226303;28;19907;-60
2022/10/10 09:34:19;;;;;;;;;;;11.40;99.90;;;;;;4231596;28;19915;-64
2022/10/10 09:36:23;;;;;;;;;;;11.40;99.90;;;;;;4229309;28;19920;-63
2022/10/10 09:38:24;;;;;;;;;;;11.50;99.90;;;;;;4231152;28;19961;-63
2022/10/10 09:40:39;;;;;;;;;;;11.50;99.90;;;;;;4230610;28;19916;-61
2022/10/10 09:42:42;;;;;;;;;;;11.60;99.90;;;;;;4231525;28;20411;-61
2022/10/10 09:44:43;;;;;;;;;;;11.70;99.90;;;;;;4230671;28;20384;-61
2022/10/10 09:46:44;;;;;;;;;;;11.90;99.90;;;;;;4231410;28;19951;-61
2022/10/10 09:48:45;;;;;;;;;;;11.90;99.90;;;;;;4230378;28;19911;-61
2022/10/10 09:50:46;;;;;;;;;;;12.00;99.90;;;;;;4231547;28;19919;-62
2022/10/10 09:52:47;;;;;;;;;;;12.20;99.90;;;;;;4230671;28;19911;-61
2022/10/10 09:54:49;;;;;;;;;;;12.20;99.90;;;;;;4230768;28;19908;-61
2022/10/10 09:56:52;;;;;;;;;;;12.10;99.90;;;;;;4230481;28;20349;-61
2022/10/10 09:58:54;;;;;;;;;;;12.10;99.90;;;;;;4230572;28;19957;-62
2022/10/10 10:01:08;;;;;;;;;;;12.20;99.90;;;;;;4230651;28;19928;-62
2022/10/10 10:03:17;;;;;;;;;;;12.30;99.90;;;;;;4230741;28;19919;-60
2022/10/10 10:05:25;;;;;;;;;;;12.40;99.90;;;;;;4230799;28;19912;-62
2022/10/10 10:07:35;;;;;;;;;;;12.60;99.90;;;;;;4230905;28;19908;-60
2022/10/10 10:09:36;;;;;;;;;;;12.70;99.90;;;;;;4230577;28;19907;-64
2022/10/10 10:11:40;;;;;;;;;;;12.90;99.90;;;;;;4230020;28;19911;-61
2022/10/10 10:13:41;;;;;;;;;;;13.00;99.90;;;;;;4230413;28;19960;-62
2022/10/10 10:15:46;;;;;;;;;;;13.10;99.90;;;;;;4229781;28;20352;-61
2022/10/10 10:18:06;;;;;;;;;;;13.10;99.90;;;;;;4230872;28;19912;-61
2022/10/10 10:20:26;;;;;;;;;;;13.20;99.90;;;;;;4230128;28;19908;-61
2022/10/10 10:22:32;;;;;;;;;;;13.30;99.90;;;;;;4230636;28;19907;-62
2022/10/10 10:24:35;;;;;;;;;;;13.30;99.90;;;;;;4230004;28;19980;-61
2022/10/10 10:26:43;;;;;;;;;;;13.30;99.90;;;;;;4231007;28;19915;-62
2022/10/10 10:28:45;;;;;;;;;;;13.40;99.90;;;;;;4229679;27;19908;-62
2022/10/10 10:30:46;;;;;;;;;;;13.30;99.90;;;;;;4231094;28;19973;-61
2022/10/10 10:32:51;;;;;;;;;;;13.40;99.90;;;;;;4229828;28;19911;-61
2022/10/10 10:35:10;;;;;;;;;;;13.40;99.90;;;;;;4230697;28;19924;-62
2022/10/10 10:37:17;;;;;;;;;;;13.40;99.90;;;;;;4230045;28;19916;-61
2022/10/10 10:39:24;;;;;;;;;;;13.50;99.90;;;;;;4230767;28;19907;-62
2022/10/10 10:41:28;;;;;;;;;;;13.60;99.90;;;;;;4229719;28;20278;-62
2022/10/10 10:43:29;;;;;;;;;;;13.70;99.90;;;;;;4230578;28;19961;-61
2022/10/10 10:45:39;;;;;;;;;;;13.80;99.90;;;;;;4229375;28;20366;-61
2022/10/10 10:47:47;;;;;;;;;;;14.00;99.90;;;;;;4230692;28;19953;-60
2022/10/10 10:49:48;;;;;;;;;;;14.10;99.90;;;;;;4227928;28;20352;-61
2022/10/10 10:52:01;;;;;;;;;;;14.10;99.90;;;;;;4230203;28;19926;-62
2022/10/10 10:54:02;;;;;;;;;;;14.10;99.90;;;;;;4229390;28;19981;-62
2022/10/10 10:56:12;;;;;;;;;;;14.10;99.90;;;;;;4230550;28;19990;-62
2022/10/10 10:58:39;;;;;;;;;;;14.30;99.90;;;;;;4229299;28;20367;-62
2022/10/10 11:00:56;;;;;;;;;;;14.30;99.90;;;;;;4198481;28;19908;-62
2022/10/10 11:02:57;;;;;;;;;;;14.40;99.90;;;;;;4229198;28;19907;-62
2022/10/10 11:05:07;;;;;;;;;;;14.50;99.90;;;;;;4229690;28;20231;-63
2022/10/10 11:07:16;;;;;;;;;;;14.60;99.90;;;;;;4229676;28;19908;-62
2022/10/10 11:09:23;;;;;;;;;;;14.60;99.90;;;;;;4230389;28;19916;-62
2022/10/10 11:11:24;;;;;;;;;;;14.90;99.90;;;;;;4228776;28;19956;-62
2022/10/10 11:13:43;;;;;;;;;;;15.00;99.90;;;;;;4230034;28;19908;-61
2022/10/10 11:15:48;;;;;;;;;;;15.10;99.90;;;;;;4228990;28;19911;-63
2022/10/10 11:17:54;;;;;;;;;;;15.30;99.90;;;;;;4230225;28;19916;-61
2022/10/10 11:19:58;;;;;;;;;;;15.40;99.90;;;;;;4229214;28;20429;-61
2022/10/10 11:22:19;;;;;;;;;;;15.60;99.90;;;;;;4230121;28;20359;-61
2022/10/10 11:24:35;;;;;;;;;;;15.70;99.90;;;;;;4228280;28;20309;-60
2022/10/10 11:26:43;;;;;;;;;;;15.60;99.90;;;;;;4229937;28;19911;-61
2022/10/10 11:28:46;;;;;;;;;;;15.70;99.90;;;;;;4228813;28;20401;-62
2022/10/10 11:30:56;;;;;;;;;;;15.80;99.90;;;;;;4229623;28;20020;-63
2022/10/10 11:33:04;;;;;;;;;;;15.90;99.90;;;;;;4228524;28;20317;-62
2022/10/10 11:35:05;;;;;;;;;;;16.00;99.90;;;;;;4229399;28;19907;-61
2022/10/10 11:37:10;;;;;;;;;;;16.20;99.90;;;;;;4229124;28;19923;-61
2022/10/10 11:39:31;;;;;;;;;;;16.20;99.90;;;;;;4229620;28;19912;-60
2022/10/10 11:41:35;;;;;;;;;;;16.20;99.90;;;;;;4214221;28;19911;-61
2022/10/10 11:43:49;;;;;;;;;;;16.30;99.90;;;;;;4229851;28;19973;-62
2022/10/10 11:45:53;;;;;;;;;;;16.40;99.90;;;;;;4228296;28;19965;-61
2022/10/10 11:47:54;;;;;;;;;;;16.40;99.90;;;;;;4229471;28;20413;-60
2022/10/10 11:50:01;;;;;;;;;;;16.40;99.90;;;;;;4228433;28;19998;-61
2022/10/10 11:52:11;;;;;;;;;;;16.40;99.90;;;;;;4229687;28;19915;-60
2022/10/10 11:54:18;;;;;;;;;;;16.40;99.90;;;;;;4228336;28;19969;-61
2022/10/10 11:56:25;;;;;;;;;;;16.40;99.90;;;;;;4228873;28;19912;-60
2022/10/10 11:58:32;;;;;;;;;;;16.40;99.90;;;;;;4228471;28;20278;-60
2022/10/10 12:00:36;;;;;;;;;;;16.50;99.90;;;;;;4229560;28;19911;-60
2022/10/10 12:02:39;;;;;;;;;;;16.50;99.90;;;;;;4228004;28;20325;-61
2022/10/10 12:04:40;;;;;;;;;;;16.60;99.90;;;;;;4229269;28;19911;-61
2022/10/10 12:06:44;;;;;;;;;;;16.60;99.90;;;;;;4228613;28;19929;-61